sensor_id;sensor_type;location;lat;lon;timestamp;temperature;humidity
75500;DHT22;64076;51.466;7.260;2023-02-03T00:01:49;20.90;40.70
75500;DHT22;64076;51.466;7.260;2023-02-03T00:04:15;20.90;40.70
75500;DHT22;64076;51.466;7.260;2023-02-03T00:06:41;20.90;40.70
75500;DHT22;64076;51.466;7.260;2023-02-03T00:09:06;20.80;40.70
75500;DHT22;64076;51.466;7.260;2023-02-03T00:11:32;20.80;40.70
75500;DHT22;64076;51.466;7.260;2023-02-03T00:13:57;20.80;40.70
75500;DHT22;64076;51.466;7.260;2023-02-03T00:16:23;20.90;40.70
75500;DHT22;64076;51.466;7.260;2023-02-03T00:18:49;20.90;40.70
75500;DHT22;64076;51.466;7.260;2023-02-03T00:21:14;20.90;40.70
75500;DHT22;64076;51.466;7.260;2023-02-03T00:23:41;20.80;40.70
75500;DHT22;64076;51.466;7.260;2023-02-03T00:26:12;20.80;40.70
75500;DHT22;64076;51.466;7.260;2023-02-03T00:31:04;20.80;40.70
75500;DHT22;64076;51.466;7.260;2023-02-03T00:33:30;20.80;40.70
75500;DHT22;64076;51.466;7.260;2023-02-03T00:36:02;20.80;40.70
75500;DHT22;64076;51.466;7.260;2023-02-03T00:38:28;20.80;40.70
75500;DHT22;64076;51.466;7.260;2023-02-03T00:40:54;20.80;40.70
75500;DHT22;64076;51.466;7.260;2023-02-03T00:43:20;20.80;40.70
75500;DHT22;64076;51.466;7.260;2023-02-03T00:45:45;20.80;40.70
75500;DHT22;64076;51.466;7.260;2023-02-03T00:48:11;20.80;40.70
75500;DHT22;64076;51.466;7.260;2023-02-03T00:50:36;20.80;40.70
75500;DHT22;64076;51.466;7.260;2023-02-03T00:53:02;20.80;40.70
75500;DHT22;64076;51.466;7.260;2023-02-03T00:55:28;20.80;40.70
75500;DHT22;64076;51.466;7.260;2023-02-03T00:57:53;20.90;40.70
75500;DHT22;64076;51.466;7.260;2023-02-03T01:00:19;20.90;40.70
75500;DHT22;64076;51.466;7.260;2023-02-03T01:02:45;20.80;40.70
75500;DHT22;64076;51.466;7.260;2023-02-03T01:05:11;20.90;40.70
75500;DHT22;64076;51.466;7.260;2023-02-03T01:07:37;20.90;40.60
75500;DHT22;64076;51.466;7.260;2023-02-03T01:10:04;20.90;40.70
75500;DHT22;64076;51.466;7.260;2023-02-03T01:12:31;20.90;40.70
75500;DHT22;64076;51.466;7.260;2023-02-03T01:14:56;20.80;40.70
75500;DHT22;64076;51.466;7.260;2023-02-03T01:17:23;20.80;40.70
75500;DHT22;64076;51.466;7.260;2023-02-03T01:19:49;20.90;40.60
75500;DHT22;64076;51.466;7.260;2023-02-03T01:22:15;20.90;40.60
75500;DHT22;64076;51.466;7.260;2023-02-03T01:24:40;20.90;40.60
75500;DHT22;64076;51.466;7.260;2023-02-03T01:27:06;20.90;40.60
75500;DHT22;64076;51.466;7.260;2023-02-03T01:29:31;20.80;40.60
75500;DHT22;64076;51.466;7.260;2023-02-03T01:31:57;20.90;40.60
75500;DHT22;64076;51.466;7.260;2023-02-03T01:34:22;20.80;40.60
75500;DHT22;64076;51.466;7.260;2023-02-03T01:36:48;20.80;40.70
75500;DHT22;64076;51.466;7.260;2023-02-03T01:39:13;20.80;40.60
75500;DHT22;64076;51.466;7.260;2023-02-03T01:46:56;20.90;40.60
75500;DHT22;64076;51.466;7.260;2023-02-03T01:49:28;20.80;40.60
75500;DHT22;64076;51.466;7.260;2023-02-03T01:51:54;20.90;40.60
75500;DHT22;64076;51.466;7.260;2023-02-03T01:54:26;20.80;40.70
75500;DHT22;64076;51.466;7.260;2023-02-03T01:57:02;20.80;40.70
75500;DHT22;64076;51.466;7.260;2023-02-03T01:59:29;20.80;40.60
75500;DHT22;64076;51.466;7.260;2023-02-03T02:01:56;20.80;40.60
75500;DHT22;64076;51.466;7.260;2023-02-03T02:04:25;20.80;40.60
75500;DHT22;64076;51.466;7.260;2023-02-03T02:06:56;20.80;40.60
75500;DHT22;64076;51.466;7.260;2023-02-03T02:09:23;20.80;40.60
75500;DHT22;64076;51.466;7.260;2023-02-03T02:11:49;20.80;40.60
75500;DHT22;64076;51.466;7.260;2023-02-03T02:14:14;20.80;40.60
75500;DHT22;64076;51.466;7.260;2023-02-03T02:35:43;20.80;40.60
75500;DHT22;64076;51.466;7.260;2023-02-03T02:38:21;20.80;40.60
75500;DHT22;64076;51.466;7.260;2023-02-03T02:45:51;20.80;40.60
75500;DHT22;64076;51.466;7.260;2023-02-03T02:48:32;20.80;40.60
75500;DHT22;64076;51.466;7.260;2023-02-03T02:51:02;20.80;40.60
75500;DHT22;64076;51.466;7.260;2023-02-03T02:53:33;20.80;40.60
75500;DHT22;64076;51.466;7.260;2023-02-03T02:56:03;20.80;40.60
75500;DHT22;64076;51.466;7.260;2023-02-03T02:58:31;20.80;40.50
75500;DHT22;64076;51.466;7.260;2023-02-03T03:00:57;20.80;40.50
75500;DHT22;64076;51.466;7.260;2023-02-03T03:03:23;20.80;40.50
75500;DHT22;64076;51.466;7.260;2023-02-03T03:05:55;20.80;40.50
75500;DHT22;64076;51.466;7.260;2023-02-03T03:09:04;20.80;40.50
75500;DHT22;64076;51.466;7.260;2023-02-03T03:11:25;20.80;40.60
75500;DHT22;64076;51.466;7.260;2023-02-03T03:13:53;20.80;40.50
75500;DHT22;64076;51.466;7.260;2023-02-03T03:16:23;20.80;40.50
75500;DHT22;64076;51.466;7.260;2023-02-03T03:18:58;20.80;40.50
75500;DHT22;64076;51.466;7.260;2023-02-03T03:21:36;20.80;40.50
75500;DHT22;64076;51.466;7.260;2023-02-03T03:24:06;20.80;40.50
75500;DHT22;64076;51.466;7.260;2023-02-03T03:29:42;20.80;40.50
75500;DHT22;64076;51.466;7.260;2023-02-03T03:32:08;20.80;40.50
75500;DHT22;64076;51.466;7.260;2023-02-03T03:34:35;20.80;40.50
75500;DHT22;64076;51.466;7.260;2023-02-03T03:37:17;20.80;40.50
75500;DHT22;64076;51.466;7.260;2023-02-03T03:39:53;20.80;40.50
75500;DHT22;64076;51.466;7.260;2023-02-03T03:42:19;20.80;40.50
75500;DHT22;64076;51.466;7.260;2023-02-03T03:47:26;20.80;40.50
75500;DHT22;64076;51.466;7.260;2023-02-03T03:49:54;20.80;40.50
75500;DHT22;64076;51.466;7.260;2023-02-03T03:52:23;20.80;40.50
75500;DHT22;64076;51.466;7.260;2023-02-03T03:54:51;20.80;40.50
75500;DHT22;64076;51.466;7.260;2023-02-03T03:57:24;20.80;40.50
75500;DHT22;64076;51.466;7.260;2023-02-03T03:59:51;20.80;40.50
75500;DHT22;64076;51.466;7.260;2023-02-03T04:02:17;20.80;40.50
75500;DHT22;64076;51.466;7.260;2023-02-03T04:04:45;20.80;40.40
75500;DHT22;64076;51.466;7.260;2023-02-03T04:07:14;20.80;40.40
75500;DHT22;64076;51.466;7.260;2023-02-03T04:09:40;20.80;40.40
75500;DHT22;64076;51.466;7.260;2023-02-03T04:12:15;20.80;40.40
75500;DHT22;64076;51.466;7.260;2023-02-03T04:14:43;20.80;40.40
75500;DHT22;64076;51.466;7.260;2023-02-03T04:17:08;20.80;40.40
75500;DHT22;64076;51.466;7.260;2023-02-03T04:19:34;20.80;40.40
75500;DHT22;64076;51.466;7.260;2023-02-03T04:21:59;20.80;40.40
75500;DHT22;64076;51.466;7.260;2023-02-03T04:24:25;20.80;40.40
75500;DHT22;64076;51.466;7.260;2023-02-03T04:26:51;20.80;40.40
75500;DHT22;64076;51.466;7.260;2023-02-03T04:29:16;20.80;40.40
75500;DHT22;64076;51.466;7.260;2023-02-03T04:31:42;20.80;40.40
75500;DHT22;64076;51.466;7.260;2023-02-03T04:34:07;20.80;40.40
75500;DHT22;64076;51.466;7.260;2023-02-03T04:36:33;20.80;40.40
75500;DHT22;64076;51.466;7.260;2023-02-03T04:38:58;20.80;40.40
75500;DHT22;64076;51.466;7.260;2023-02-03T04:41:24;20.80;40.30
75500;DHT22;64076;51.466;7.260;2023-02-03T04:43:49;20.80;40.30
75500;DHT22;64076;51.466;7.260;2023-02-03T04:46:15;20.80;40.30
75500;DHT22;64076;51.466;7.260;2023-02-03T04:48:40;20.80;40.30
75500;DHT22;64076;51.466;7.260;2023-02-03T04:51:07;20.80;40.30
75500;DHT22;64076;51.466;7.260;2023-02-03T04:53:33;20.80;40.30
75500;DHT22;64076;51.466;7.260;2023-02-03T04:55:59;20.80;40.30
75500;DHT22;64076;51.466;7.260;2023-02-03T04:58:25;20.80;40.30
75500;DHT22;64076;51.466;7.260;2023-02-03T05:00:52;20.80;40.30
75500;DHT22;64076;51.466;7.260;2023-02-03T05:03:18;20.80;40.30
75500;DHT22;64076;51.466;7.260;2023-02-03T05:05:43;20.80;40.30
75500;DHT22;64076;51.466;7.260;2023-02-03T05:08:09;20.80;40.30
75500;DHT22;64076;51.466;7.260;2023-02-03T05:10:34;20.80;40.30
75500;DHT22;64076;51.466;7.260;2023-02-03T05:13:00;20.80;40.30
75500;DHT22;64076;51.466;7.260;2023-02-03T05:15:26;20.80;40.30
75500;DHT22;64076;51.466;7.260;2023-02-03T05:17:52;20.80;40.30
75500;DHT22;64076;51.466;7.260;2023-02-03T05:20:18;20.80;40.30
75500;DHT22;64076;51.466;7.260;2023-02-03T05:22:44;20.80;40.20
75500;DHT22;64076;51.466;7.260;2023-02-03T05:25:09;20.80;40.20
75500;DHT22;64076;51.466;7.260;2023-02-03T05:27:37;20.80;40.20
75500;DHT22;64076;51.466;7.260;2023-02-03T05:30:04;20.80;40.30
75500;DHT22;64076;51.466;7.260;2023-02-03T05:32:29;20.80;40.20
75500;DHT22;64076;51.466;7.260;2023-02-03T05:34:55;20.80;40.20
75500;DHT22;64076;51.466;7.260;2023-02-03T05:37:20;20.80;40.20
75500;DHT22;64076;51.466;7.260;2023-02-03T05:39:46;20.80;40.20
75500;DHT22;64076;51.466;7.260;2023-02-03T05:42:11;20.80;40.20
75500;DHT22;64076;51.466;7.260;2023-02-03T05:44:37;20.80;40.20
75500;DHT22;64076;51.466;7.260;2023-02-03T05:47:02;20.80;40.20
75500;DHT22;64076;51.466;7.260;2023-02-03T05:49:28;20.80;40.20
75500;DHT22;64076;51.466;7.260;2023-02-03T05:51:54;20.80;40.20
75500;DHT22;64076;51.466;7.260;2023-02-03T05:54:20;20.80;40.20
75500;DHT22;64076;51.466;7.260;2023-02-03T05:56:46;20.80;40.20
75500;DHT22;64076;51.466;7.260;2023-02-03T05:59:11;20.80;40.10
75500;DHT22;64076;51.466;7.260;2023-02-03T06:01:37;20.80;40.10
75500;DHT22;64076;51.466;7.260;2023-02-03T06:04:03;20.80;40.10
75500;DHT22;64076;51.466;7.260;2023-02-03T06:06:29;20.80;40.10
75500;DHT22;64076;51.466;7.260;2023-02-03T06:09:06;20.80;40.10
75500;DHT22;64076;51.466;7.260;2023-02-03T06:11:33;20.80;40.10
75500;DHT22;64076;51.466;7.260;2023-02-03T06:14:00;20.80;40.40
75500;DHT22;64076;51.466;7.260;2023-02-03T06:16:27;20.80;40.30
75500;DHT22;64076;51.466;7.260;2023-02-03T06:18:54;20.80;40.20
75500;DHT22;64076;51.466;7.260;2023-02-03T06:21:22;20.80;40.20
75500;DHT22;64076;51.466;7.260;2023-02-03T06:23:48;20.80;40.20
75500;DHT22;64076;51.466;7.260;2023-02-03T06:26:13;20.90;40.10
75500;DHT22;64076;51.466;7.260;2023-02-03T06:28:39;20.90;40.10
75500;DHT22;64076;51.466;7.260;2023-02-03T06:31:05;20.90;40.10
75500;DHT22;64076;51.466;7.260;2023-02-03T06:33:31;20.90;40.00
75500;DHT22;64076;51.466;7.260;2023-02-03T06:35:57;20.90;40.00
75500;DHT22;64076;51.466;7.260;2023-02-03T06:38:23;21.00;40.00
75500;DHT22;64076;51.466;7.260;2023-02-03T06:40:49;21.00;39.90
75500;DHT22;64076;51.466;7.260;2023-02-03T06:43:14;21.00;39.90
75500;DHT22;64076;51.466;7.260;2023-02-03T06:45:40;21.00;39.90
75500;DHT22;64076;51.466;7.260;2023-02-03T06:48:06;21.00;39.90
75500;DHT22;64076;51.466;7.260;2023-02-03T06:50:32;21.00;39.90
75500;DHT22;64076;51.466;7.260;2023-02-03T06:52:57;21.00;39.90
75500;DHT22;64076;51.466;7.260;2023-02-03T06:55:23;21.10;39.80
75500;DHT22;64076;51.466;7.260;2023-02-03T06:57:48;21.10;39.90
75500;DHT22;64076;51.466;7.260;2023-02-03T07:00:16;21.10;39.80
75500;DHT22;64076;51.466;7.260;2023-02-03T07:02:42;21.10;39.90
75500;DHT22;64076;51.466;7.260;2023-02-03T07:05:08;21.10;39.90
75500;DHT22;64076;51.466;7.260;2023-02-03T07:07:34;21.10;39.90
75500;DHT22;64076;51.466;7.260;2023-02-03T07:10:00;21.10;39.90
75500;DHT22;64076;51.466;7.260;2023-02-03T07:12:26;21.10;39.90
75500;DHT22;64076;51.466;7.260;2023-02-03T07:14:52;21.10;40.00
75500;DHT22;64076;51.466;7.260;2023-02-03T07:17:17;21.10;40.10
75500;DHT22;64076;51.466;7.260;2023-02-03T07:19:43;21.20;40.10
75500;DHT22;64076;51.466;7.260;2023-02-03T07:22:11;21.20;40.20
75500;DHT22;64076;51.466;7.260;2023-02-03T07:24:37;21.20;40.20
75500;DHT22;64076;51.466;7.260;2023-02-03T07:27:02;21.20;40.20
75500;DHT22;64076;51.466;7.260;2023-02-03T07:29:28;21.20;40.20
75500;DHT22;64076;51.466;7.260;2023-02-03T07:31:54;21.20;40.20
75500;DHT22;64076;51.466;7.260;2023-02-03T07:34:19;21.20;40.20
75500;DHT22;64076;51.466;7.260;2023-02-03T07:36:45;21.20;40.20
75500;DHT22;64076;51.466;7.260;2023-02-03T07:39:10;21.20;40.20
75500;DHT22;64076;51.466;7.260;2023-02-03T07:41:36;21.20;40.10
75500;DHT22;64076;51.466;7.260;2023-02-03T07:44:01;21.20;40.10
75500;DHT22;64076;51.466;7.260;2023-02-03T07:46:27;21.30;40.10
75500;DHT22;64076;51.466;7.260;2023-02-03T07:48:53;21.20;40.00
75500;DHT22;64076;51.466;7.260;2023-02-03T07:51:18;21.30;40.00
75500;DHT22;64076;51.466;7.260;2023-02-03T07:53:44;21.30;39.90
75500;DHT22;64076;51.466;7.260;2023-02-03T07:56:10;21.30;39.90
75500;DHT22;64076;51.466;7.260;2023-02-03T07:58:36;21.30;39.90
75500;DHT22;64076;51.466;7.260;2023-02-03T08:01:09;21.30;39.90
75500;DHT22;64076;51.466;7.260;2023-02-03T08:03:35;21.30;39.80
75500;DHT22;64076;51.466;7.260;2023-02-03T08:06:01;21.30;39.80
75500;DHT22;64076;51.466;7.260;2023-02-03T08:08:26;21.30;39.70
75500;DHT22;64076;51.466;7.260;2023-02-03T08:10:54;21.30;39.80
75500;DHT22;64076;51.466;7.260;2023-02-03T08:13:20;21.30;39.70
75500;DHT22;64076;51.466;7.260;2023-02-03T08:15:46;21.30;39.70
75500;DHT22;64076;51.466;7.260;2023-02-03T08:18:12;21.30;39.60
75500;DHT22;64076;51.466;7.260;2023-02-03T08:20:37;21.30;39.70
75500;DHT22;64076;51.466;7.260;2023-02-03T08:23:03;21.30;39.60
75500;DHT22;64076;51.466;7.260;2023-02-03T08:25:28;21.30;39.60
75500;DHT22;64076;51.466;7.260;2023-02-03T08:27:54;21.30;39.60
75500;DHT22;64076;51.466;7.260;2023-02-03T08:30:21;21.30;39.60
75500;DHT22;64076;51.466;7.260;2023-02-03T08:32:47;21.30;39.60
75500;DHT22;64076;51.466;7.260;2023-02-03T08:35:12;21.30;39.60
75500;DHT22;64076;51.466;7.260;2023-02-03T08:37:41;21.30;39.60
75500;DHT22;64076;51.466;7.260;2023-02-03T08:40:09;21.30;39.60
75500;DHT22;64076;51.466;7.260;2023-02-03T08:42:34;21.30;39.60
75500;DHT22;64076;51.466;7.260;2023-02-03T08:45:00;21.30;39.60
75500;DHT22;64076;51.466;7.260;2023-02-03T08:47:26;21.30;39.60
75500;DHT22;64076;51.466;7.260;2023-02-03T08:49:52;21.30;39.60
75500;DHT22;64076;51.466;7.260;2023-02-03T08:52:18;21.30;39.60
75500;DHT22;64076;51.466;7.260;2023-02-03T08:54:44;21.30;39.60
75500;DHT22;64076;51.466;7.260;2023-02-03T08:57:09;21.40;39.60
75500;DHT22;64076;51.466;7.260;2023-02-03T08:59:38;21.30;39.60
75500;DHT22;64076;51.466;7.260;2023-02-03T09:02:06;21.40;39.60
75500;DHT22;64076;51.466;7.260;2023-02-03T09:04:34;21.30;39.60
75500;DHT22;64076;51.466;7.260;2023-02-03T09:07:00;21.40;39.60
75500;DHT22;64076;51.466;7.260;2023-02-03T09:09:27;21.40;39.60
75500;DHT22;64076;51.466;7.260;2023-02-03T09:11:53;21.40;39.60
75500;DHT22;64076;51.466;7.260;2023-02-03T09:14:24;21.40;39.60
75500;DHT22;64076;51.466;7.260;2023-02-03T09:16:51;21.40;39.60
75500;DHT22;64076;51.466;7.260;2023-02-03T09:19:17;21.40;39.60
75500;DHT22;64076;51.466;7.260;2023-02-03T09:21:43;21.40;39.60
75500;DHT22;64076;51.466;7.260;2023-02-03T09:24:08;21.40;39.60
75500;DHT22;64076;51.466;7.260;2023-02-03T09:26:34;21.40;39.60
75500;DHT22;64076;51.466;7.260;2023-02-03T09:28:59;21.40;39.60
75500;DHT22;64076;51.466;7.260;2023-02-03T09:31:25;21.40;39.60
75500;DHT22;64076;51.466;7.260;2023-02-03T09:33:50;21.40;39.60
75500;DHT22;64076;51.466;7.260;2023-02-03T09:36:16;21.40;39.60
75500;DHT22;64076;51.466;7.260;2023-02-03T09:38:41;21.40;39.60
75500;DHT22;64076;51.466;7.260;2023-02-03T09:41:13;21.40;39.60
75500;DHT22;64076;51.466;7.260;2023-02-03T09:46:27;21.40;39.60
75500;DHT22;64076;51.466;7.260;2023-02-03T09:49:02;21.40;39.70
75500;DHT22;64076;51.466;7.260;2023-02-03T09:51:43;21.40;39.60
75500;DHT22;64076;51.466;7.260;2023-02-03T09:57:04;21.40;39.70
75500;DHT22;64076;51.466;7.260;2023-02-03T09:59:32;21.40;39.70
75500;DHT22;64076;51.466;7.260;2023-02-03T10:02:29;21.40;39.70
75500;DHT22;64076;51.466;7.260;2023-02-03T10:05:00;21.40;39.60
75500;DHT22;64076;51.466;7.260;2023-02-03T10:07:41;21.40;39.70
75500;DHT22;64076;51.466;7.260;2023-02-03T10:10:38;21.40;39.70
75500;DHT22;64076;51.466;7.260;2023-02-03T10:13:37;21.40;39.70
75500;DHT22;64076;51.466;7.260;2023-02-03T10:19:01;21.40;39.80
75500;DHT22;64076;51.466;7.260;2023-02-03T10:21:32;21.40;39.80
75500;DHT22;64076;51.466;7.260;2023-02-03T10:23:59;21.40;39.80
75500;DHT22;64076;51.466;7.260;2023-02-03T10:26:27;21.40;39.90
75500;DHT22;64076;51.466;7.260;2023-02-03T10:29:01;21.40;39.90
75500;DHT22;64076;51.466;7.260;2023-02-03T10:31:32;21.40;39.90
75500;DHT22;64076;51.466;7.260;2023-02-03T10:34:14;21.40;40.00
75500;DHT22;64076;51.466;7.260;2023-02-03T10:37:18;21.50;40.00
75500;DHT22;64076;51.466;7.260;2023-02-03T10:39:50;21.50;39.90
75500;DHT22;64076;51.466;7.260;2023-02-03T10:42:16;21.50;40.00
75500;DHT22;64076;51.466;7.260;2023-02-03T10:44:57;21.50;40.10
75500;DHT22;64076;51.466;7.260;2023-02-03T10:47:36;21.50;40.10
75500;DHT22;64076;51.466;7.260;2023-02-03T10:50:18;21.50;40.10
75500;DHT22;64076;51.466;7.260;2023-02-03T10:52:44;21.50;40.00
75500;DHT22;64076;51.466;7.260;2023-02-03T10:57:47;21.50;40.10
75500;DHT22;64076;51.466;7.260;2023-02-03T11:00:27;21.50;40.10
75500;DHT22;64076;51.466;7.260;2023-02-03T11:02:59;21.50;40.20
75500;DHT22;64076;51.466;7.260;2023-02-03T11:05:27;21.50;40.20
75500;DHT22;64076;51.466;7.260;2023-02-03T11:07:53;21.50;40.20
75500;DHT22;64076;51.466;7.260;2023-02-03T11:13:17;21.50;40.20
75500;DHT22;64076;51.466;7.260;2023-02-03T11:18:43;21.60;40.20
75500;DHT22;64076;51.466;7.260;2023-02-03T11:21:17;21.60;40.20
75500;DHT22;64076;51.466;7.260;2023-02-03T11:24:31;21.50;40.20
75500;DHT22;64076;51.466;7.260;2023-02-03T11:26:39;21.50;40.20
75500;DHT22;64076;51.466;7.260;2023-02-03T11:29:17;21.50;40.30
75500;DHT22;64076;51.466;7.260;2023-02-03T11:31:47;21.50;40.30
75500;DHT22;64076;51.466;7.260;2023-02-03T11:34:19;21.50;40.30
75500;DHT22;64076;51.466;7.260;2023-02-03T11:36:48;21.60;40.40
75500;DHT22;64076;51.466;7.260;2023-02-03T11:41:49;21.50;40.40
75500;DHT22;64076;51.466;7.260;2023-02-03T11:44:27;21.60;40.40
75500;DHT22;64076;51.466;7.260;2023-02-03T11:47:00;21.60;40.40
75500;DHT22;64076;51.466;7.260;2023-02-03T11:52:56;21.60;40.40
75500;DHT22;64076;51.466;7.260;2023-02-03T11:55:28;21.60;40.40
75500;DHT22;64076;51.466;7.260;2023-02-03T12:07:03;21.60;40.50
75500;DHT22;64076;51.466;7.260;2023-02-03T12:12:38;21.50;40.60
75500;DHT22;64076;51.466;7.260;2023-02-03T12:23:29;21.50;40.80
75500;DHT22;64076;51.466;7.260;2023-02-03T12:26:08;21.50;40.80
75500;DHT22;64076;51.466;7.260;2023-02-03T12:34:12;21.60;40.80
75500;DHT22;64076;51.466;7.260;2023-02-03T12:36:44;21.60;40.80
75500;DHT22;64076;51.466;7.260;2023-02-03T12:39:28;21.60;40.80
75500;DHT22;64076;51.466;7.260;2023-02-03T12:42:22;21.60;40.90
75500;DHT22;64076;51.466;7.260;2023-02-03T12:47:46;21.50;41.00
75500;DHT22;64076;51.466;7.260;2023-02-03T12:50:33;21.60;41.00
75500;DHT22;64076;51.466;7.260;2023-02-03T12:53:21;21.60;41.00
75500;DHT22;64076;51.466;7.260;2023-02-03T12:56:30;21.50;41.10
75500;DHT22;64076;51.466;7.260;2023-02-03T12:59:00;21.50;41.10
75500;DHT22;64076;51.466;7.260;2023-02-03T13:01:40;21.50;41.20
75500;DHT22;64076;51.466;7.260;2023-02-03T13:04:28;21.50;41.20
75500;DHT22;64076;51.466;7.260;2023-02-03T13:09:30;21.60;41.00
75500;DHT22;64076;51.466;7.260;2023-02-03T13:12:16;21.50;41.10
75500;DHT22;64076;51.466;7.260;2023-02-03T13:14:52;21.60;41.20
75500;DHT22;64076;51.466;7.260;2023-02-03T13:17:24;21.50;41.20
75500;DHT22;64076;51.466;7.260;2023-02-03T13:19:54;21.50;41.20
75500;DHT22;64076;51.466;7.260;2023-02-03T13:22:22;21.60;41.20
75500;DHT22;64076;51.466;7.260;2023-02-03T13:30:35;21.60;41.10
75500;DHT22;64076;51.466;7.260;2023-02-03T13:41:01;21.60;41.00
75500;DHT22;64076;51.466;7.260;2023-02-03T13:43:32;21.60;40.90
75500;DHT22;64076;51.466;7.260;2023-02-03T13:45:59;21.60;40.90
75500;DHT22;64076;51.466;7.260;2023-02-03T13:48:28;21.60;40.90
75500;DHT22;64076;51.466;7.260;2023-02-03T13:51:14;21.60;40.90
75500;DHT22;64076;51.466;7.260;2023-02-03T13:53:42;21.60;40.90
75500;DHT22;64076;51.466;7.260;2023-02-03T13:56:35;21.60;40.90
75500;DHT22;64076;51.466;7.260;2023-02-03T13:59:26;21.60;40.80
75500;DHT22;64076;51.466;7.260;2023-02-03T14:10:22;21.60;40.70
75500;DHT22;64076;51.466;7.260;2023-02-03T14:18:04;21.60;40.50
75500;DHT22;64076;51.466;7.260;2023-02-03T14:20:53;21.50;40.60
75500;DHT22;64076;51.466;7.260;2023-02-03T14:23:26;21.60;40.50
75500;DHT22;64076;51.466;7.260;2023-02-03T14:25:58;21.60;40.50
75500;DHT22;64076;51.466;7.260;2023-02-03T14:31:13;21.60;40.50
75500;DHT22;64076;51.466;7.260;2023-02-03T14:36:33;21.60;40.40
75500;DHT22;64076;51.466;7.260;2023-02-03T14:39:03;21.60;40.30
75500;DHT22;64076;51.466;7.260;2023-02-03T14:48:19;21.60;40.10
75500;DHT22;64076;51.466;7.260;2023-02-03T14:53:18;21.60;40.10
75500;DHT22;64076;51.466;7.260;2023-02-03T14:56:11;21.60;40.10
75500;DHT22;64076;51.466;7.260;2023-02-03T14:58:45;21.60;40.10
75500;DHT22;64076;51.466;7.260;2023-02-03T15:06:46;21.60;40.10
75500;DHT22;64076;51.466;7.260;2023-02-03T15:11:56;21.60;40.20
75500;DHT22;64076;51.466;7.260;2023-02-03T15:14:27;21.60;40.10
75500;DHT22;64076;51.466;7.260;2023-02-03T15:17:01;21.60;40.20
75500;DHT22;64076;51.466;7.260;2023-02-03T15:19:32;21.60;40.20
75500;DHT22;64076;51.466;7.260;2023-02-03T15:21:58;21.60;40.10
75500;DHT22;64076;51.466;7.260;2023-02-03T15:24:24;21.60;40.20
75500;DHT22;64076;51.466;7.260;2023-02-03T15:26:54;21.60;40.10
75500;DHT22;64076;51.466;7.260;2023-02-03T15:29:31;21.60;40.10
75500;DHT22;64076;51.466;7.260;2023-02-03T15:32:10;21.60;40.10
75500;DHT22;64076;51.466;7.260;2023-02-03T15:34:42;21.60;40.00
75500;DHT22;64076;51.466;7.260;2023-02-03T15:40:16;21.60;40.00
75500;DHT22;64076;51.466;7.260;2023-02-03T15:47:52;21.60;39.90
75500;DHT22;64076;51.466;7.260;2023-02-03T15:50:32;21.60;39.90
75500;DHT22;64076;51.466;7.260;2023-02-03T15:53:18;21.60;39.80
75500;DHT22;64076;51.466;7.260;2023-02-03T15:55:48;21.60;39.80
75500;DHT22;64076;51.466;7.260;2023-02-03T15:58:21;21.60;39.70
75500;DHT22;64076;51.466;7.260;2023-02-03T16:00:50;21.60;39.60
75500;DHT22;64076;51.466;7.260;2023-02-03T16:03:20;21.60;39.60
75500;DHT22;64076;51.466;7.260;2023-02-03T16:05:48;21.60;39.60
75500;DHT22;64076;51.466;7.260;2023-02-03T16:08:43;21.60;39.50
75500;DHT22;64076;51.466;7.260;2023-02-03T16:11:23;21.60;39.50
75500;DHT22;64076;51.466;7.260;2023-02-03T16:13:49;21.60;39.40
75500;DHT22;64076;51.466;7.260;2023-02-03T16:16:19;21.60;39.40
75500;DHT22;64076;51.466;7.260;2023-02-03T16:18:52;21.60;39.40
75500;DHT22;64076;51.466;7.260;2023-02-03T16:23:58;21.60;39.30
75500;DHT22;64076;51.466;7.260;2023-02-03T16:26:29;21.60;39.30
75500;DHT22;64076;51.466;7.260;2023-02-03T16:28:56;21.60;39.30
75500;DHT22;64076;51.466;7.260;2023-02-03T16:31:46;21.60;39.30
75500;DHT22;64076;51.466;7.260;2023-02-03T16:34:33;21.60;39.20
75500;DHT22;64076;51.466;7.260;2023-02-03T16:37:30;21.60;39.20
75500;DHT22;64076;51.466;7.260;2023-02-03T16:40:18;21.60;39.20
75500;DHT22;64076;51.466;7.260;2023-02-03T16:43:03;21.60;39.10
75500;DHT22;64076;51.466;7.260;2023-02-03T16:45:53;21.60;39.10
75500;DHT22;64076;51.466;7.260;2023-02-03T16:48:38;21.60;39.00
75500;DHT22;64076;51.466;7.260;2023-02-03T16:51:21;21.60;39.00
75500;DHT22;64076;51.466;7.260;2023-02-03T16:53:47;21.60;39.00
75500;DHT22;64076;51.466;7.260;2023-02-03T16:56:13;21.60;39.00
75500;DHT22;64076;51.466;7.260;2023-02-03T16:58:39;21.60;38.90
75500;DHT22;64076;51.466;7.260;2023-02-03T17:01:06;21.60;38.80
75500;DHT22;64076;51.466;7.260;2023-02-03T17:03:34;21.60;38.80
75500;DHT22;64076;51.466;7.260;2023-02-03T17:06:08;21.60;38.70
75500;DHT22;64076;51.466;7.260;2023-02-03T17:08:35;21.60;38.60
75500;DHT22;64076;51.466;7.260;2023-02-03T17:11:05;21.60;38.60
75500;DHT22;64076;51.466;7.260;2023-02-03T17:13:32;21.60;38.70
75500;DHT22;64076;51.466;7.260;2023-02-03T17:15:57;21.60;38.60
75500;DHT22;64076;51.466;7.260;2023-02-03T17:18:23;21.70;38.60
75500;DHT22;64076;51.466;7.260;2023-02-03T17:20:49;21.60;38.70
75500;DHT22;64076;51.466;7.260;2023-02-03T17:23:15;21.60;38.70
75500;DHT22;64076;51.466;7.260;2023-02-03T17:25:43;21.60;38.70
75500;DHT22;64076;51.466;7.260;2023-02-03T17:28:10;21.60;38.70
75500;DHT22;64076;51.466;7.260;2023-02-03T17:30:37;21.60;38.80
75500;DHT22;64076;51.466;7.260;2023-02-03T17:33:05;21.60;38.80
75500;DHT22;64076;51.466;7.260;2023-02-03T17:35:43;21.50;38.90
75500;DHT22;64076;51.466;7.260;2023-02-03T18:22:03;21.50;38.90
75500;DHT22;64076;51.466;7.260;2023-02-03T18:24:29;21.40;39.10
75500;DHT22;64076;51.466;7.260;2023-02-03T18:26:55;21.30;39.10
75500;DHT22;64076;51.466;7.260;2023-02-03T18:29:21;21.30;39.10
75500;DHT22;64076;51.466;7.260;2023-02-03T18:31:48;21.40;39.10
75500;DHT22;64076;51.466;7.260;2023-02-03T18:34:15;21.40;39.10
75500;DHT22;64076;51.466;7.260;2023-02-03T18:36:41;21.40;39.10
75500;DHT22;64076;51.466;7.260;2023-02-03T18:39:07;21.40;39.10
75500;DHT22;64076;51.466;7.260;2023-02-03T18:41:33;21.30;39.20
75500;DHT22;64076;51.466;7.260;2023-02-03T18:44:00;21.30;39.20
75500;DHT22;64076;51.466;7.260;2023-02-03T18:46:29;21.30;39.20
75500;DHT22;64076;51.466;7.260;2023-02-03T18:48:55;21.30;39.20
75500;DHT22;64076;51.466;7.260;2023-02-03T18:51:22;21.30;39.20
75500;DHT22;64076;51.466;7.260;2023-02-03T18:53:48;21.30;39.20
75500;DHT22;64076;51.466;7.260;2023-02-03T18:58:41;21.30;39.30
75500;DHT22;64076;51.466;7.260;2023-02-03T19:01:07;21.30;39.20
75500;DHT22;64076;51.466;7.260;2023-02-03T19:03:33;21.30;39.20
75500;DHT22;64076;51.466;7.260;2023-02-03T19:05:59;21.30;39.30